11/17 13:00 更新

3,000ftに雲が少し
23,000ftに雲が散在

地上風: 350°16kt

上空風(熊谷ウインドプロファイラ)
13,000ft: 270°47kt
10,000ft: 290°43kt
 7,000ft: 290°34kt
 3,000ft: 320°23kt

地上: 18℃
上空: -4.9℃

日没: 16:33

実況天気図


予想天気図


RJTJ 170400Z 35016KT 9999 FEW030 SCT230 18/03 Q1020 RMK 1CU030 A3013 MAX WIND 22KT=

GPV気象予報
気象庁
日本気象協会

玉淀ダム放流量(1,000m3/sを超えた7時間後にDZ冠水)
太郎衛門橋テレメータ水位(11mでDZ冠水)

skydive.jp